createdAt,value
2023-03-01T00:01:35.845Z,6.60
2023-03-01T00:04:05.692Z,6.80
2023-03-01T00:06:33.992Z,6.57
2023-03-01T00:09:02.372Z,5.97
2023-03-01T00:11:33.049Z,6.47
2023-03-01T00:14:03.146Z,7.10
2023-03-01T00:16:35.062Z,7.22
2023-03-01T00:19:04.180Z,6.75
2023-03-01T00:21:34.888Z,6.57
2023-03-01T00:24:03.400Z,7.22
2023-03-01T00:26:31.988Z,6.90
2023-03-01T00:29:01.138Z,6.30
2023-03-01T00:31:31.486Z,5.80
2023-03-01T00:34:01.581Z,6.82
2023-03-01T00:36:34.656Z,6.72
2023-03-01T00:39:04.164Z,5.50
2023-03-01T00:41:32.700Z,6.60
2023-03-01T00:44:01.115Z,6.72
2023-03-01T00:46:31.520Z,6.32
2023-03-01T00:49:03.121Z,6.10
2023-03-01T00:51:33.329Z,6.78
2023-03-01T00:54:03.221Z,6.32
2023-03-01T00:56:32.538Z,6.60
2023-03-01T00:59:01.144Z,6.07
2023-03-01T01:01:31.907Z,7.20
2023-03-01T01:04:02.925Z,7.90
2023-03-01T01:06:35.023Z,5.97
2023-03-01T01:09:04.379Z,6.10
2023-03-01T01:11:33.833Z,6.00
2023-03-01T01:14:02.113Z,6.00
2023-03-01T01:16:31.803Z,6.53
2023-03-01T01:19:00.332Z,6.30
2023-03-01T01:21:29.582Z,6.70
2023-03-01T01:23:59.846Z,6.72
2023-03-01T01:26:30.562Z,6.68
2023-03-01T01:28:59.414Z,5.65
2023-03-01T01:31:29.294Z,6.30
2023-03-01T01:33:58.314Z,5.47
2023-03-01T01:36:26.588Z,6.50
2023-03-01T01:38:54.964Z,7.53
2023-03-01T01:41:25.667Z,6.60
2023-03-01T01:44:16.406Z,6.00
2023-03-01T01:46:46.748Z,5.40
2023-03-01T01:49:25.669Z,5.13
2023-03-01T01:52:00.002Z,5.57
2023-03-01T01:54:32.910Z,6.72
2023-03-01T01:57:08.872Z,5.47
2023-03-01T01:59:38.375Z,5.45
2023-03-01T02:02:07.319Z,5.85
2023-03-01T02:04:35.943Z,4.97
2023-03-01T02:07:08.891Z,5.28
2023-03-01T02:09:38.592Z,5.50
2023-03-01T02:12:08.362Z,5.30
2023-03-01T02:14:37.073Z,6.90
2023-03-01T02:17:05.493Z,6.50
2023-03-01T02:19:45.261Z,5.38
2023-03-01T02:22:24.497Z,5.45
2023-03-01T02:25:14.349Z,5.20
2023-03-01T02:27:54.739Z,5.45
2023-03-01T02:30:26.678Z,5.22
2023-03-01T02:33:04.095Z,5.22
2023-03-01T02:35:34.923Z,5.25
2023-03-01T02:38:05.639Z,5.35
2023-03-01T02:40:36.524Z,5.40
2023-03-01T02:43:10.550Z,5.50
2023-03-01T02:45:45.451Z,5.65
2023-03-01T02:48:13.844Z,5.78
2023-03-01T02:51:06.955Z,5.10
2023-03-01T02:53:41.917Z,5.45
2023-03-01T02:56:14.190Z,5.97
2023-03-01T02:58:46.635Z,5.43
2023-03-01T03:01:17.233Z,6.10
2023-03-01T03:03:45.988Z,4.82
2023-03-01T03:06:14.998Z,5.03
2023-03-01T03:08:43.236Z,5.47
2023-03-01T03:11:11.583Z,6.13
2023-03-01T03:13:49.166Z,5.90
2023-03-01T03:16:18.897Z,5.03
2023-03-01T03:18:47.073Z,5.38
2023-03-01T03:21:16.290Z,5.15
2023-03-01T03:23:44.596Z,5.20
2023-03-01T03:26:14.409Z,4.97
2023-03-01T03:28:43.020Z,5.32
2023-03-01T03:31:11.370Z,5.53
2023-03-01T03:33:41.157Z,5.22
2023-03-01T03:36:14.029Z,4.85
2023-03-01T03:38:42.881Z,4.85
2023-03-01T03:41:11.690Z,6.10
2023-03-01T03:43:43.761Z,4.75
2023-03-01T03:46:13.993Z,5.90
2023-03-01T03:48:45.314Z,4.60
2023-03-01T03:51:14.682Z,4.78
2023-03-01T03:53:43.715Z,6.85
2023-03-01T03:56:12.258Z,5.95
2023-03-01T03:58:40.715Z,5.00
2023-03-01T04:01:09.173Z,6.38
2023-03-01T04:03:37.503Z,5.43
2023-03-01T04:06:07.874Z,4.93
2023-03-01T04:08:36.158Z,5.88
2023-03-01T04:11:20.809Z,6.32
2023-03-01T04:13:49.516Z,5.80
2023-03-01T04:16:18.805Z,6.32
2023-03-01T04:18:47.668Z,5.82
2023-03-01T04:21:17.442Z,7.03
2023-03-01T04:23:45.632Z,4.65
2023-03-01T04:26:14.169Z,5.30
2023-03-01T04:28:46.548Z,5.97
2023-03-01T04:31:18.626Z,5.13
2023-03-01T04:33:49.615Z,3.97
2023-03-01T04:36:20.410Z,5.93
2023-03-01T04:38:49.374Z,5.70
2023-03-01T04:41:20.108Z,5.25
2023-03-01T04:43:49.584Z,4.60
2023-03-01T04:46:20.564Z,4.40
2023-03-01T04:48:49.707Z,5.95
2023-03-01T04:51:19.564Z,4.90
2023-03-01T04:53:48.358Z,5.90
2023-03-01T04:56:17.070Z,4.95
2023-03-01T04:58:45.504Z,5.28
2023-03-01T05:01:17.628Z,4.22
2023-03-01T05:03:46.539Z,5.20
2023-03-01T05:06:15.418Z,4.68
2023-03-01T05:08:45.689Z,6.13
2023-03-01T05:11:14.263Z,4.57
2023-03-01T05:13:43.666Z,4.60
2023-03-01T05:16:13.356Z,5.18
2023-03-01T05:18:42.860Z,5.10
2023-03-01T05:21:12.464Z,4.72
2023-03-01T05:23:41.145Z,5.53
2023-03-01T05:26:22.470Z,5.00
2023-03-01T05:29:00.276Z,4.90
2023-03-01T05:31:29.199Z,5.57
2023-03-01T05:33:57.602Z,4.90
2023-03-01T05:36:25.916Z,4.82
2023-03-01T05:38:54.239Z,5.65
2023-03-01T05:41:23.849Z,6.10
2023-03-01T05:43:52.222Z,5.20
2023-03-01T05:46:20.479Z,6.03
2023-03-01T05:48:49.693Z,5.63
2023-03-01T05:51:19.044Z,6.68
2023-03-01T05:53:47.288Z,5.43
2023-03-01T05:56:16.133Z,5.45
2023-03-01T05:58:45.709Z,5.22
2023-03-01T06:01:14.983Z,5.55
2023-03-01T06:03:43.303Z,5.78
2023-03-01T06:06:11.518Z,6.07
2023-03-01T06:08:40.049Z,4.60
2023-03-01T06:11:08.888Z,5.75
2023-03-01T06:13:37.215Z,5.30
2023-03-01T06:16:09.610Z,5.28
2023-03-01T06:18:38.197Z,5.78
2023-03-01T06:21:07.004Z,5.22
2023-03-01T06:23:35.530Z,5.18
2023-03-01T06:26:07.150Z,5.13
2023-03-01T06:28:35.469Z,4.53
2023-03-01T06:31:03.727Z,4.90
2023-03-01T06:33:33.448Z,5.00
2023-03-01T06:36:01.745Z,4.70
2023-03-01T06:38:30.338Z,5.00
2023-03-01T06:40:58.612Z,5.90
2023-03-01T06:43:27.132Z,5.00
2023-03-01T06:45:55.535Z,5.57
2023-03-01T06:48:24.001Z,5.03
2023-03-01T06:50:53.750Z,5.70
2023-03-01T06:53:22.293Z,6.05
2023-03-01T06:55:55.664Z,6.97
2023-03-01T06:58:23.971Z,6.88
2023-03-01T07:00:52.298Z,6.05
2023-03-01T07:03:20.548Z,5.43
2023-03-01T07:05:53.065Z,6.88
2023-03-01T07:08:22.857Z,7.18
2023-03-01T07:10:56.640Z,8.15
2023-03-01T07:13:24.968Z,7.82
2023-03-01T07:15:53.423Z,8.45
2023-03-01T07:18:21.827Z,7.63
2023-03-01T07:20:50.192Z,7.53
2023-03-01T07:23:18.521Z,8.95
2023-03-01T07:25:54.313Z,8.52
2023-03-01T07:28:23.214Z,7.63
2023-03-01T07:30:51.451Z,7.95
2023-03-01T07:33:20.150Z,8.23
2023-03-01T07:35:48.424Z,6.97
2023-03-01T07:38:16.712Z,8.00
2023-03-01T07:40:45.331Z,7.72
2023-03-01T07:43:15.095Z,6.72
2023-03-01T07:45:43.381Z,8.43
2023-03-01T07:48:11.692Z,9.02
2023-03-01T07:50:40.111Z,9.73
2023-03-01T07:53:08.389Z,8.38
2023-03-01T07:55:36.939Z,8.77
2023-03-01T07:58:05.493Z,8.95
2023-03-01T08:00:35.197Z,8.55
2023-03-01T08:03:03.608Z,8.90
2023-03-01T08:05:31.801Z,9.25
2023-03-01T08:08:00.133Z,9.60
2023-03-01T08:10:28.643Z,9.13
2023-03-01T08:12:56.858Z,9.48
2023-03-01T08:15:25.147Z,7.75
2023-03-01T08:17:54.798Z,7.22
2023-03-01T08:20:23.400Z,8.95
2023-03-01T08:22:51.816Z,9.18
2023-03-01T08:25:20.524Z,8.90
2023-03-01T08:27:48.765Z,7.18
2023-03-01T08:30:17.586Z,8.60
2023-03-01T08:32:45.888Z,9.40
2023-03-01T08:35:15.676Z,8.15
2023-03-01T08:37:43.871Z,9.65
2023-03-01T08:40:14.763Z,8.88
2023-03-01T08:42:43.922Z,8.57
2023-03-01T08:45:13.723Z,9.25
2023-03-01T08:47:41.998Z,8.75
2023-03-01T08:50:11.482Z,8.88
2023-03-01T08:52:41.582Z,8.77
2023-03-01T08:55:11.001Z,8.05
2023-03-01T08:57:39.573Z,7.15
2023-03-01T09:00:10.563Z,8.20
2023-03-01T09:02:39.774Z,8.50
2023-03-01T09:05:08.583Z,8.38
2023-03-01T09:07:37.019Z,7.47
2023-03-01T09:10:07.682Z,7.20
2023-03-01T09:12:36.027Z,7.65
2023-03-01T09:15:04.979Z,7.72
2023-03-01T09:17:33.240Z,9.68
2023-03-01T09:20:01.936Z,8.10
2023-03-01T09:22:30.245Z,8.02
2023-03-01T09:25:00.277Z,7.43
2023-03-01T09:27:30.069Z,8.13
2023-03-01T09:29:58.520Z,7.88
2023-03-01T09:32:26.862Z,7.72
2023-03-01T09:35:06.002Z,8.27
2023-03-01T09:37:35.330Z,7.53
2023-03-01T09:40:04.360Z,7.90
2023-03-01T09:42:36.249Z,7.20
2023-03-01T09:45:07.399Z,7.38
2023-03-01T09:47:37.864Z,5.65
2023-03-01T09:50:13.854Z,6.70
2023-03-01T09:52:44.926Z,6.97
2023-03-01T09:55:16.207Z,7.38
2023-03-01T09:57:51.171Z,7.13
2023-03-01T10:00:32.063Z,5.97
2023-03-01T10:03:10.436Z,5.57
2023-03-01T10:05:46.039Z,6.72
2023-03-01T10:08:30.538Z,7.60
2023-03-01T10:10:59.677Z,7.38
2023-03-01T10:13:36.054Z,6.43
2023-03-01T10:16:11.665Z,6.30
2023-03-01T10:18:42.051Z,7.30
2023-03-01T10:21:19.816Z,8.07
2023-03-01T10:23:51.868Z,8.15
2023-03-01T10:26:33.456Z,5.25
2023-03-01T10:29:08.896Z,7.18
2023-03-01T10:31:44.132Z,7.28
2023-03-01T10:34:18.464Z,5.60
2023-03-01T10:36:50.316Z,6.18
2023-03-01T10:39:21.358Z,6.55
2023-03-01T10:41:59.398Z,7.22
2023-03-01T10:44:45.038Z,6.78
2023-03-01T10:47:31.132Z,4.82
2023-03-01T10:50:02.080Z,7.38
2023-03-01T10:52:34.575Z,7.32
2023-03-01T10:55:06.803Z,7.25
2023-03-01T10:57:42.838Z,6.90
2023-03-01T11:00:23.929Z,6.05
2023-03-01T11:03:15.232Z,6.68
2023-03-01T11:06:00.314Z,5.72
2023-03-01T11:08:50.093Z,7.70
2023-03-01T11:11:32.513Z,5.63
2023-03-01T11:14:06.584Z,6.72
2023-03-01T11:16:42.049Z,5.63
2023-03-01T11:19:20.076Z,5.70
2023-03-01T11:22:02.290Z,7.53
2023-03-01T11:24:39.558Z,6.28
2023-03-01T11:27:19.280Z,3.38
2023-03-01T11:29:52.196Z,7.30
2023-03-01T11:32:25.017Z,7.07
2023-03-01T11:34:58.535Z,6.63
2023-03-01T11:37:36.009Z,5.82
2023-03-01T11:40:18.421Z,6.40
2023-03-01T11:42:59.000Z,4.97
2023-03-01T11:45:34.230Z,6.50
2023-03-01T11:48:15.197Z,7.35
2023-03-01T11:50:47.775Z,7.53
2023-03-01T11:53:41.745Z,7.18
2023-03-01T11:56:26.666Z,6.55
2023-03-01T11:59:24.543Z,6.18
2023-03-01T12:02:28.366Z,7.15
2023-03-01T12:05:29.789Z,6.90
2023-03-01T12:08:09.343Z,7.85
2023-03-01T12:10:45.417Z,7.25
2023-03-01T12:13:38.790Z,7.45
2023-03-01T12:16:36.258Z,7.18
2023-03-01T12:19:26.502Z,6.95
2023-03-01T12:22:07.367Z,6.00
2023-03-01T12:25:13.496Z,6.47
2023-03-01T12:28:08.616Z,6.63
2023-03-01T12:30:48.727Z,4.07
2023-03-01T12:33:33.752Z,6.05
2023-03-01T12:36:26.661Z,7.07
2023-03-01T12:39:09.103Z,5.85
2023-03-01T12:41:53.713Z,5.75
2023-03-01T12:44:43.847Z,7.53
2023-03-01T12:47:25.431Z,6.38
2023-03-01T12:49:58.386Z,3.25
2023-03-01T12:52:41.384Z,6.78
2023-03-01T12:55:21.386Z,7.32
2023-03-01T12:57:59.794Z,6.80
2023-03-01T13:00:33.956Z,6.45
2023-03-01T13:03:11.760Z,7.07
2023-03-01T13:05:47.830Z,8.05
2023-03-01T13:08:22.838Z,7.03
2023-03-01T13:10:56.249Z,2.75
2023-03-01T13:13:27.072Z,6.05
2023-03-01T13:15:56.288Z,7.35
2023-03-01T13:18:35.050Z,6.15
2023-03-01T13:21:06.576Z,7.65
2023-03-01T13:23:38.460Z,6.07
2023-03-01T13:26:15.824Z,6.53
2023-03-01T13:28:58.124Z,8.50
2023-03-01T13:32:01.118Z,6.68
2023-03-01T13:34:47.535Z,6.97
2023-03-01T13:37:31.650Z,6.47
2023-03-01T13:40:05.486Z,7.45
2023-03-01T13:42:40.639Z,6.13
2023-03-01T13:45:24.112Z,7.07
2023-03-01T13:47:59.215Z,5.97
2023-03-01T13:50:30.317Z,7.47
2023-03-01T13:53:01.632Z,6.30
2023-03-01T13:55:39.522Z,5.85
2023-03-01T13:58:23.315Z,5.90
2023-03-01T14:01:00.261Z,6.20
2023-03-01T14:03:29.076Z,5.82
2023-03-01T14:06:14.178Z,7.82
2023-03-01T14:08:45.478Z,4.30
2023-03-01T14:11:42.617Z,6.57
2023-03-01T14:14:30.310Z,7.75
2023-03-01T14:17:10.718Z,5.97
2023-03-01T14:19:39.094Z,5.38
2023-03-01T14:22:21.559Z,4.95
2023-03-01T14:24:53.412Z,7.00
2023-03-01T14:27:22.365Z,6.45
2023-03-01T14:30:00.267Z,4.47
2023-03-01T14:32:31.915Z,6.53
2023-03-01T14:35:01.725Z,6.30
2023-03-01T14:37:33.520Z,5.53
2023-03-01T14:40:05.010Z,7.18
2023-03-01T14:42:37.974Z,7.43
2023-03-01T14:45:09.624Z,5.43
2023-03-01T14:47:42.365Z,6.72
2023-03-01T14:50:22.976Z,6.70
2023-03-01T14:52:55.173Z,6.13
2023-03-01T14:55:29.349Z,5.88
2023-03-01T14:57:59.440Z,6.22
2023-03-01T15:00:31.411Z,7.38
2023-03-01T15:03:04.718Z,7.55
2023-03-01T15:05:34.327Z,6.05
2023-03-01T15:08:04.799Z,6.65
2023-03-01T15:10:35.689Z,5.90
2023-03-01T15:13:13.655Z,5.65
2023-03-01T15:15:44.719Z,7.53
2023-03-01T15:18:20.785Z,7.05
2023-03-01T15:20:51.023Z,7.28
2023-03-01T15:23:25.261Z,6.88
2023-03-01T15:25:58.346Z,5.55
2023-03-01T15:28:29.957Z,6.72
2023-03-01T15:31:03.659Z,4.00
2023-03-01T15:33:39.232Z,4.90
2023-03-01T15:36:42.890Z,5.25
2023-03-01T15:39:34.032Z,6.25
2023-03-01T15:42:02.478Z,6.05
2023-03-01T15:44:42.808Z,4.90
2023-03-01T15:47:26.928Z,5.95
2023-03-01T15:49:59.131Z,4.93
2023-03-01T15:52:31.014Z,5.97
2023-03-01T15:55:01.776Z,5.70
2023-03-01T15:57:30.737Z,6.50
2023-03-01T15:59:59.046Z,5.72
2023-03-01T16:02:27.501Z,4.70
2023-03-01T16:04:58.047Z,5.85
2023-03-01T16:07:28.990Z,5.32
2023-03-01T16:09:57.355Z,4.95
2023-03-01T16:12:26.397Z,5.07
2023-03-01T16:14:55.091Z,5.20
2023-03-01T16:17:23.997Z,5.38
2023-03-01T16:19:52.329Z,5.85
2023-03-01T16:22:26.072Z,5.05
2023-03-01T16:24:54.546Z,5.38
2023-03-01T16:27:23.385Z,4.97
2023-03-01T16:29:52.228Z,6.15
2023-03-01T16:32:20.465Z,4.53
2023-03-01T16:34:50.406Z,5.50
2023-03-01T16:37:20.388Z,5.68
2023-03-01T16:39:52.155Z,4.95
2023-03-01T16:42:20.619Z,5.72
2023-03-01T16:44:48.781Z,6.38
2023-03-01T16:47:17.071Z,5.70
2023-03-01T16:49:45.599Z,5.28
2023-03-01T16:52:14.068Z,6.25
2023-03-01T16:54:42.448Z,5.75
2023-03-01T16:57:12.152Z,5.15
2023-03-01T16:59:40.449Z,6.07
2023-03-01T17:02:12.154Z,5.72
2023-03-01T17:04:40.432Z,4.68
2023-03-01T17:07:08.712Z,5.05
2023-03-01T17:09:38.044Z,6.20
2023-03-01T17:12:06.685Z,6.20
2023-03-01T17:14:38.801Z,7.95
2023-03-01T17:17:07.050Z,7.03
2023-03-01T17:19:36.347Z,6.50
2023-03-01T17:22:05.342Z,5.50
2023-03-01T17:24:35.012Z,6.18
2023-03-01T17:27:03.461Z,5.97
2023-03-01T17:29:31.819Z,5.65
2023-03-01T17:32:02.114Z,5.95
2023-03-01T17:34:32.447Z,6.70
2023-03-01T17:37:01.184Z,5.72
2023-03-01T17:39:36.145Z,6.25
2023-03-01T17:42:05.275Z,5.93
2023-03-01T17:44:34.623Z,6.05
2023-03-01T17:47:05.368Z,7.20
2023-03-01T17:49:33.987Z,6.88
2023-03-01T17:52:02.200Z,6.78
2023-03-01T17:54:30.480Z,6.50
2023-03-01T17:56:59.015Z,7.30
2023-03-01T17:59:31.298Z,6.97
2023-03-01T18:02:01.540Z,6.82
2023-03-01T18:04:32.502Z,6.97
2023-03-01T18:07:01.171Z,6.90
2023-03-01T18:09:30.587Z,6.65
2023-03-01T18:11:59.014Z,7.63
2023-03-01T18:14:29.892Z,6.60
2023-03-01T18:16:58.302Z,6.10
2023-03-01T18:19:26.597Z,6.68
2023-03-01T18:21:56.483Z,6.78
2023-03-01T18:24:24.993Z,7.20
2023-03-01T18:26:53.617Z,7.47
2023-03-01T18:29:21.892Z,7.70
2023-03-01T18:31:50.300Z,7.20
2023-03-01T18:34:18.684Z,7.60
2023-03-01T18:37:00.583Z,8.13
2023-03-01T18:39:36.983Z,9.35
2023-03-01T18:42:05.423Z,6.70
2023-03-01T18:44:33.692Z,8.68
2023-03-01T18:47:02.174Z,7.10
2023-03-01T18:49:30.458Z,9.25
2023-03-01T18:51:58.924Z,9.57
2023-03-01T18:54:27.100Z,10.73
2023-03-01T18:56:56.929Z,12.90
2023-03-01T18:59:25.294Z,9.02
2023-03-01T19:01:54.121Z,11.02
2023-03-01T19:04:22.352Z,11.77
2023-03-01T19:06:50.532Z,9.45
2023-03-01T19:09:19.313Z,12.55
2023-03-01T19:11:47.533Z,11.15
2023-03-01T19:14:17.106Z,8.70
2023-03-01T19:16:45.317Z,10.48
2023-03-01T19:19:13.979Z,9.18
2023-03-01T19:21:42.646Z,9.10
2023-03-01T19:24:11.516Z,10.32
2023-03-01T19:26:41.835Z,8.93
2023-03-01T19:29:11.087Z,9.40
2023-03-01T19:31:40.745Z,10.45
2023-03-01T19:34:11.720Z,8.80
2023-03-01T19:36:42.612Z,9.15
2023-03-01T19:39:13.986Z,9.57
2023-03-01T19:41:42.634Z,10.65
2023-03-01T19:44:11.378Z,8.07
2023-03-01T19:46:41.167Z,11.18
2023-03-01T19:49:09.585Z,9.32
2023-03-01T19:51:39.527Z,10.57
2023-03-01T19:54:09.938Z,9.93
2023-03-01T19:56:38.474Z,11.40
2023-03-01T19:59:07.064Z,9.05
2023-03-01T20:01:38.180Z,10.80
2023-03-01T20:04:09.123Z,9.68
2023-03-01T20:06:39.205Z,8.98
2023-03-01T20:09:20.716Z,9.88
2023-03-01T20:11:50.169Z,9.98
2023-03-01T20:14:18.706Z,11.35
2023-03-01T20:16:47.018Z,8.20
2023-03-01T20:19:16.832Z,9.25
2023-03-01T20:21:45.114Z,9.15
2023-03-01T20:24:13.779Z,10.63
2023-03-01T20:26:42.476Z,9.13
2023-03-01T20:29:12.013Z,10.65
2023-03-01T20:31:42.595Z,10.43
2023-03-01T20:34:11.424Z,10.07
2023-03-01T20:36:41.762Z,10.30
2023-03-01T20:39:13.673Z,8.68
2023-03-01T20:41:42.430Z,9.77
2023-03-01T20:44:11.116Z,10.23
2023-03-01T20:46:40.138Z,9.18
2023-03-01T20:49:08.559Z,10.48
2023-03-01T20:51:36.971Z,10.27
2023-03-01T20:54:06.832Z,13.85
2023-03-01T20:56:36.084Z,11.07
2023-03-01T20:59:05.502Z,11.52
2023-03-01T21:01:34.071Z,11.82
2023-03-01T21:04:02.455Z,12.70
2023-03-01T21:06:31.482Z,10.40
2023-03-01T21:09:00.027Z,10.55
2023-03-01T21:11:29.679Z,8.52
2023-03-01T21:13:58.809Z,10.93
2023-03-01T21:16:27.318Z,10.23
2023-03-01T21:18:55.819Z,9.68
2023-03-01T21:21:25.512Z,11.00
2023-03-01T21:23:55.472Z,10.52
2023-03-01T21:26:25.413Z,9.40
2023-03-01T21:28:58.311Z,11.55
2023-03-01T21:31:28.692Z,13.77
2023-03-01T21:33:58.913Z,11.25
2023-03-01T21:36:30.178Z,9.93
2023-03-01T21:39:02.074Z,12.00
2023-03-01T21:41:33.010Z,10.90
2023-03-01T21:44:04.480Z,9.95
2023-03-01T21:46:36.712Z,9.32
2023-03-01T21:49:07.289Z,12.45
2023-03-01T21:51:36.632Z,8.70
2023-03-01T21:54:05.842Z,10.65
2023-03-01T21:56:39.084Z,11.65
2023-03-01T21:59:10.462Z,11.10
2023-03-01T22:01:39.088Z,8.52
2023-03-01T22:04:07.750Z,8.95
2023-03-01T22:06:41.027Z,9.23
2023-03-01T22:09:12.765Z,10.52
2023-03-01T22:11:43.854Z,9.32
2023-03-01T22:14:14.404Z,10.55
2023-03-01T22:16:45.663Z,10.93
2023-03-01T22:19:14.999Z,10.10
2023-03-01T22:21:45.344Z,11.07
2023-03-01T22:24:15.138Z,7.32
2023-03-01T22:26:45.827Z,12.43
2023-03-01T22:29:18.710Z,9.40
2023-03-01T22:31:47.520Z,9.23
2023-03-01T22:34:17.264Z,10.18
2023-03-01T22:36:46.284Z,9.60
2023-03-01T22:39:16.651Z,9.68
2023-03-01T22:41:47.222Z,10.13
2023-03-01T22:44:18.425Z,12.63
2023-03-01T22:46:47.016Z,9.50
2023-03-01T22:49:15.747Z,9.38
2023-03-01T22:51:47.454Z,9.45
2023-03-01T22:54:17.266Z,9.48
2023-03-01T22:56:46.457Z,11.20
2023-03-01T22:59:19.083Z,9.55
2023-03-01T23:01:48.276Z,7.68
2023-03-01T23:04:17.633Z,8.13
2023-03-01T23:06:52.008Z,13.27
2023-03-01T23:09:21.852Z,10.07
2023-03-01T23:11:50.623Z,8.05
2023-03-01T23:14:21.258Z,8.65
2023-03-01T23:16:51.078Z,10.45
2023-03-01T23:19:19.642Z,8.48
2023-03-01T23:21:50.400Z,8.35
2023-03-01T23:24:21.011Z,9.73
2023-03-01T23:26:54.041Z,7.63
2023-03-01T23:29:24.108Z,9.68
2023-03-01T23:31:52.494Z,10.93
2023-03-01T23:34:21.130Z,10.48
2023-03-01T23:36:49.410Z,9.75
2023-03-01T23:39:17.545Z,10.02
2023-03-01T23:41:45.958Z,10.40
2023-03-01T23:44:17.351Z,8.20
2023-03-01T23:46:48.299Z,7.25
2023-03-01T23:49:18.766Z,8.50
2023-03-01T23:51:48.590Z,9.07
2023-03-01T23:54:20.020Z,9.95
2023-03-01T23:56:48.517Z,11.00
2023-03-01T23:59:19.101Z,7.95
